createdAt,value
2018-10-02T00:01:12.473Z,71.11
2018-10-02T00:03:41.265Z,71.02
2018-10-02T00:06:09.871Z,71.38
2018-10-02T00:08:38.487Z,71.55
2018-10-02T00:11:12.772Z,71.21
2018-10-02T00:13:46.421Z,71.62
2018-10-02T00:16:15.060Z,71.37
2018-10-02T00:18:43.701Z,71.43
2018-10-02T00:21:12.258Z,71.65
2018-10-02T00:23:40.823Z,71.47
2018-10-02T00:26:09.441Z,71.23
2018-10-02T00:28:37.978Z,71.29
2018-10-02T00:31:06.612Z,71.04
2018-10-02T00:33:35.271Z,71.05
2018-10-02T00:36:04.203Z,71.08
2018-10-02T00:38:32.780Z,70.77
2018-10-02T00:41:01.930Z,70.71
2018-10-02T00:43:30.639Z,70.78
2018-10-02T00:45:59.210Z,70.65
2018-10-02T00:48:27.783Z,70.40
2018-10-02T00:50:56.399Z,70.76
2018-10-02T00:53:25.046Z,70.49
2018-10-02T00:55:53.692Z,70.33
2018-10-02T00:58:22.294Z,70.46
2018-10-02T01:00:50.826Z,70.41
2018-10-02T01:03:19.542Z,69.98
2018-10-02T01:05:48.126Z,70.03
2018-10-02T01:08:16.649Z,70.05
2018-10-02T01:10:45.213Z,69.91
2018-10-02T01:13:13.810Z,70.29
2018-10-02T01:15:42.761Z,70.02
2018-10-02T01:18:11.551Z,69.96
2018-10-02T01:20:40.364Z,69.81
2018-10-02T01:23:08.869Z,70.06
2018-10-02T01:25:37.538Z,70.08
2018-10-02T01:28:06.510Z,69.78
2018-10-02T01:30:35.084Z,69.66
2018-10-02T01:33:04.113Z,69.94
2018-10-02T01:35:32.750Z,69.75
2018-10-02T01:38:02.174Z,69.68
2018-10-02T01:40:31.091Z,69.69
2018-10-02T01:42:59.621Z,69.96
2018-10-02T01:45:28.293Z,70.17
2018-10-02T01:47:56.870Z,70.37
2018-10-02T01:50:25.556Z,70.08
2018-10-02T01:52:54.216Z,70.36
2018-10-02T01:55:22.774Z,70.58
2018-10-02T01:57:51.429Z,70.59
2018-10-02T02:00:20.129Z,70.73
2018-10-02T02:02:48.716Z,70.51
2018-10-02T02:05:17.485Z,70.45
2018-10-02T02:07:46.173Z,70.58
2018-10-02T02:10:14.747Z,70.54
2018-10-02T02:12:43.378Z,70.60
2018-10-02T02:15:12.136Z,70.49
2018-10-02T02:17:40.713Z,70.39
2018-10-02T02:20:09.553Z,70.39
2018-10-02T02:22:38.121Z,70.58
2018-10-02T02:25:08.251Z,70.02
2018-10-02T02:27:36.847Z,70.53
2018-10-02T02:30:05.657Z,70.50
2018-10-02T02:32:34.211Z,70.61
2018-10-02T02:35:03.597Z,70.83
2018-10-02T02:37:32.099Z,70.75
2018-10-02T02:40:00.676Z,70.71
2018-10-02T02:42:29.292Z,70.62
2018-10-02T02:44:58.041Z,70.53
2018-10-02T02:47:31.807Z,70.23
2018-10-02T02:50:05.441Z,70.36
2018-10-02T02:52:38.307Z,70.42
2018-10-02T02:55:07.539Z,70.34
2018-10-02T02:57:36.030Z,70.50
2018-10-02T03:00:04.938Z,70.61
2018-10-02T03:02:33.634Z,70.37
2018-10-02T03:05:02.788Z,70.48
2018-10-02T03:07:31.404Z,70.61
2018-10-02T03:09:59.987Z,70.50
2018-10-02T03:12:28.575Z,70.29
2018-10-02T03:14:57.177Z,70.85
2018-10-02T03:17:25.810Z,70.89
2018-10-02T03:19:54.380Z,70.80
2018-10-02T03:22:23.067Z,70.84
2018-10-02T03:24:51.708Z,70.51
2018-10-02T03:27:20.274Z,70.72
2018-10-02T03:29:48.775Z,70.47
2018-10-02T03:32:17.356Z,70.52
2018-10-02T03:34:45.941Z,70.88
2018-10-02T03:37:14.604Z,70.00
2018-10-02T03:39:43.304Z,70.56
2018-10-02T03:42:11.856Z,70.78
2018-10-02T03:44:40.438Z,70.72
2018-10-02T03:47:08.954Z,70.53
2018-10-02T03:49:37.535Z,70.89
2018-10-02T03:52:06.242Z,70.53
2018-10-02T03:54:34.881Z,70.52
2018-10-02T03:57:03.750Z,70.49
2018-10-02T03:59:32.366Z,70.48
2018-10-02T04:02:01.605Z,70.32
2018-10-02T04:04:30.143Z,70.45
2018-10-02T04:06:58.725Z,70.45
2018-10-02T04:09:27.312Z,70.11
2018-10-02T04:11:55.920Z,69.82
2018-10-02T04:14:24.644Z,69.88
2018-10-02T04:16:53.272Z,69.60
2018-10-02T04:19:21.876Z,69.94
2018-10-02T04:21:50.506Z,70.29
2018-10-02T04:27:21.516Z,70.28
2018-10-02T04:29:50.094Z,70.13
2018-10-02T04:32:18.689Z,69.76
2018-10-02T04:34:47.219Z,69.68
2018-10-02T04:37:15.831Z,69.51
2018-10-02T04:39:44.496Z,69.87
2018-10-02T04:42:13.055Z,69.99
2018-10-02T04:44:41.844Z,70.03
2018-10-02T04:47:10.535Z,70.32
2018-10-02T04:49:39.170Z,70.38
2018-10-02T04:52:07.822Z,70.35
2018-10-02T04:54:36.403Z,70.37
2018-10-02T04:57:05.070Z,70.42
2018-10-02T04:59:34.023Z,70.25
2018-10-02T05:02:02.671Z,70.31
2018-10-02T05:04:31.372Z,70.37
2018-10-02T05:06:59.916Z,70.17
2018-10-02T05:09:28.600Z,70.79
2018-10-02T05:11:57.193Z,70.93
2018-10-02T05:14:25.834Z,70.76
2018-10-02T05:16:54.398Z,70.80
2018-10-02T05:19:22.951Z,70.73
2018-10-02T05:21:51.632Z,70.88
2018-10-02T05:24:20.224Z,70.59
2018-10-02T05:26:48.806Z,70.71
2018-10-02T05:29:17.565Z,70.76
2018-10-02T05:31:46.357Z,70.91
2018-10-02T05:34:15.033Z,70.87
2018-10-02T05:36:43.749Z,70.84
2018-10-02T05:39:12.534Z,71.11
2018-10-02T05:41:41.206Z,71.01
2018-10-02T05:44:12.842Z,70.86
2018-10-02T05:46:41.428Z,71.06
2018-10-02T05:49:10.212Z,70.65
2018-10-02T05:51:38.743Z,71.07
2018-10-02T05:54:07.481Z,71.14
2018-10-02T05:56:36.151Z,71.18
2018-10-02T05:59:04.740Z,71.11
2018-10-02T06:01:33.320Z,71.19
2018-10-02T06:04:01.945Z,71.16
2018-10-02T06:06:30.581Z,71.16
2018-10-02T06:08:59.205Z,71.30
2018-10-02T06:11:27.876Z,71.72
2018-10-02T06:13:56.525Z,71.88
2018-10-02T06:16:25.374Z,72.35
2018-10-02T06:18:53.986Z,72.86
2018-10-02T06:21:22.693Z,72.72
2018-10-02T06:23:51.326Z,72.91
2018-10-02T06:26:19.938Z,73.41
2018-10-02T06:28:48.504Z,73.33
2018-10-02T06:31:17.262Z,73.70
2018-10-02T06:33:45.987Z,73.42
2018-10-02T06:36:14.709Z,73.57
2018-10-02T06:38:50.117Z,73.95
2018-10-02T06:41:18.834Z,74.48
2018-10-02T06:43:47.639Z,74.60
2018-10-02T06:46:16.161Z,74.66
2018-10-02T06:48:44.984Z,75.04
2018-10-02T06:51:13.660Z,75.04
2018-10-02T06:53:42.175Z,74.98
2018-10-02T06:56:10.801Z,76.25
2018-10-02T06:58:39.416Z,76.12
2018-10-02T07:01:08.017Z,76.38
2018-10-02T07:03:36.749Z,76.20
2018-10-02T07:06:05.408Z,76.42
2018-10-02T07:08:34.048Z,75.73
2018-10-02T07:11:03.431Z,76.02
2018-10-02T07:13:31.989Z,76.40
2018-10-02T07:16:00.535Z,75.94
2018-10-02T07:18:29.165Z,76.02
2018-10-02T07:20:57.847Z,75.89
2018-10-02T07:23:26.489Z,75.86
2018-10-02T07:25:54.976Z,75.90
2018-10-02T07:28:23.665Z,75.89
2018-10-02T07:30:52.245Z,75.90
2018-10-02T07:33:21.092Z,76.10
2018-10-02T07:35:49.702Z,76.11
2018-10-02T07:38:18.440Z,75.72
2018-10-02T07:40:47.118Z,75.89
2018-10-02T07:43:15.765Z,75.46
2018-10-02T07:45:44.361Z,75.15
2018-10-02T07:48:12.989Z,75.22
2018-10-02T07:50:41.803Z,75.73
2018-10-02T07:53:10.372Z,75.65
2018-10-02T07:55:39.029Z,75.79
2018-10-02T07:58:07.597Z,75.46
2018-10-02T08:00:36.393Z,75.60
2018-10-02T08:03:05.091Z,75.37
2018-10-02T08:05:33.680Z,75.56
2018-10-02T08:08:02.388Z,75.80
2018-10-02T08:10:31.081Z,75.59
2018-10-02T08:12:59.722Z,75.61
2018-10-02T08:15:28.502Z,75.35
2018-10-02T08:17:57.139Z,75.04
2018-10-02T08:20:25.734Z,75.28
2018-10-02T08:22:54.332Z,75.26
2018-10-02T08:25:22.864Z,75.38
2018-10-02T08:27:51.571Z,75.11
2018-10-02T08:30:20.203Z,75.11
2018-10-02T08:32:48.814Z,74.87
2018-10-02T08:35:17.475Z,75.35
2018-10-02T08:37:46.067Z,75.33
2018-10-02T08:40:14.746Z,75.52
2018-10-02T08:42:43.338Z,75.59
2018-10-02T08:45:12.084Z,75.58
2018-10-02T08:47:41.419Z,75.51
2018-10-02T08:50:09.675Z,75.26
2018-10-02T08:52:38.407Z,75.31
2018-10-02T08:55:07.232Z,75.78
2018-10-02T08:57:35.847Z,75.63
2018-10-02T09:00:04.979Z,75.40
2018-10-02T09:02:33.640Z,75.89
2018-10-02T09:05:02.875Z,75.80
2018-10-02T09:07:31.535Z,76.05
2018-10-02T09:10:00.143Z,76.56
2018-10-02T09:12:28.737Z,76.59
2018-10-02T09:14:57.424Z,76.87
2018-10-02T09:17:26.045Z,76.44
2018-10-02T09:19:54.662Z,76.68
2018-10-02T09:22:23.297Z,76.53
2018-10-02T09:24:51.945Z,76.90
2018-10-02T09:27:20.593Z,76.74
2018-10-02T09:29:54.511Z,76.60
2018-10-02T09:32:28.518Z,76.89
2018-10-02T09:35:02.356Z,77.19
2018-10-02T09:37:36.192Z,77.36
2018-10-02T09:41:10.780Z,77.32
2018-10-02T09:43:51.754Z,77.67
2018-10-02T09:46:21.170Z,77.42
2018-10-02T09:48:49.958Z,77.86
2018-10-02T09:51:18.680Z,78.34
2018-10-02T09:53:47.475Z,77.84
2018-10-02T09:56:16.177Z,78.04
2018-10-02T09:58:44.686Z,77.97
2018-10-02T10:01:18.672Z,78.23
2018-10-02T10:03:47.272Z,78.44
2018-10-02T10:06:15.928Z,78.64
2018-10-02T10:08:44.477Z,78.54
2018-10-02T10:11:13.036Z,78.46
2018-10-02T10:13:41.634Z,78.70
2018-10-02T10:16:10.289Z,78.71
2018-10-02T10:18:39.000Z,78.30
2018-10-02T10:21:07.782Z,78.46
2018-10-02T10:23:36.457Z,79.00
2018-10-02T10:26:05.126Z,78.75
2018-10-02T10:28:33.762Z,78.96
2018-10-02T10:31:03.502Z,79.25
2018-10-02T10:33:32.301Z,79.37
2018-10-02T10:36:00.892Z,79.83
2018-10-02T10:38:29.604Z,79.61
2018-10-02T10:40:58.465Z,80.09
2018-10-02T10:43:27.155Z,80.13
2018-10-02T10:45:55.809Z,79.91
2018-10-02T10:48:24.484Z,79.71
2018-10-02T10:50:53.183Z,80.39
2018-10-02T10:53:21.844Z,80.58
2018-10-02T10:55:50.520Z,80.52
2018-10-02T10:58:19.117Z,80.28
2018-10-02T11:00:47.716Z,79.93
2018-10-02T11:03:16.360Z,80.27
2018-10-02T11:05:44.888Z,80.68
2018-10-02T11:08:13.555Z,80.40
2018-10-02T11:10:42.198Z,80.02
2018-10-02T11:13:10.782Z,79.93
2018-10-02T11:15:39.487Z,80.26
2018-10-02T11:18:08.178Z,79.90
2018-10-02T11:20:37.807Z,79.81
2018-10-02T11:23:06.546Z,80.13
2018-10-02T11:25:35.253Z,80.10
2018-10-02T11:28:03.817Z,80.05
2018-10-02T11:30:32.462Z,79.79
2018-10-02T11:33:01.582Z,79.86
2018-10-02T11:35:30.225Z,79.80
2018-10-02T11:37:58.742Z,78.98
2018-10-02T11:40:27.408Z,78.97
2018-10-02T11:42:56.135Z,79.27
2018-10-02T11:45:24.799Z,78.78
2018-10-02T11:47:53.364Z,78.59
2018-10-02T11:50:21.984Z,78.71
2018-10-02T11:52:50.678Z,78.58
2018-10-02T11:55:19.396Z,78.19
2018-10-02T11:57:48.144Z,78.94
2018-10-02T12:00:16.954Z,78.91
2018-10-02T12:02:45.496Z,79.13
2018-10-02T12:05:14.029Z,78.19
2018-10-02T12:07:42.747Z,78.39
2018-10-02T12:10:11.343Z,78.05
2018-10-02T12:12:39.937Z,78.19
2018-10-02T12:15:08.716Z,78.39
2018-10-02T12:17:37.460Z,77.97
2018-10-02T12:20:06.108Z,78.02
2018-10-02T12:22:34.703Z,77.87
2018-10-02T12:25:03.713Z,77.92
2018-10-02T12:27:32.418Z,77.68
2018-10-02T12:30:02.168Z,77.92
2018-10-02T12:32:30.816Z,77.66
2018-10-02T12:34:59.441Z,77.35
2018-10-02T12:37:28.111Z,77.72
2018-10-02T12:39:56.806Z,77.48
2018-10-02T12:42:25.285Z,77.65
2018-10-02T12:44:53.963Z,77.35
2018-10-02T12:47:22.561Z,77.41
2018-10-02T12:49:51.259Z,77.77
2018-10-02T12:52:20.067Z,77.93
2018-10-02T12:54:48.685Z,77.87
2018-10-02T12:57:17.344Z,78.47
2018-10-02T12:59:45.984Z,78.08
2018-10-02T13:02:14.680Z,78.51
2018-10-02T13:04:43.339Z,78.93
2018-10-02T13:07:11.986Z,78.74
2018-10-02T13:09:40.601Z,78.65
2018-10-02T13:12:09.195Z,79.00
2018-10-02T13:14:37.732Z,79.18
2018-10-02T13:17:06.524Z,79.14
2018-10-02T13:19:35.218Z,79.58
2018-10-02T13:22:04.053Z,79.93
2018-10-02T13:24:32.719Z,79.65
2018-10-02T13:27:01.760Z,79.73
2018-10-02T13:29:30.323Z,79.09
2018-10-02T13:31:58.931Z,79.40
2018-10-02T13:34:27.622Z,79.31
2018-10-02T13:36:56.318Z,79.83
2018-10-02T13:39:25.011Z,79.38
2018-10-02T13:41:53.627Z,79.64
2018-10-02T13:44:22.353Z,79.49
2018-10-02T13:46:51.045Z,79.38
2018-10-02T13:49:19.643Z,79.62
2018-10-02T13:51:48.267Z,79.62
2018-10-02T13:54:16.906Z,79.71
2018-10-02T13:56:45.668Z,79.67
2018-10-02T13:59:14.253Z,79.95
2018-10-02T14:01:42.923Z,79.84
2018-10-02T14:04:11.604Z,79.90
2018-10-02T14:06:40.251Z,80.20
2018-10-02T14:09:09.876Z,80.36
2018-10-02T14:11:38.491Z,80.79
2018-10-02T14:14:07.145Z,80.59
2018-10-02T14:16:35.866Z,80.79
2018-10-02T14:19:04.492Z,80.65
2018-10-02T14:21:33.224Z,80.49
2018-10-02T14:24:02.222Z,80.73
2018-10-02T14:26:30.903Z,80.63
2018-10-02T14:28:59.584Z,80.57
2018-10-02T14:31:28.113Z,80.77
2018-10-02T14:33:56.782Z,80.94
2018-10-02T14:36:25.476Z,80.95
2018-10-02T14:38:54.100Z,80.75
2018-10-02T14:41:22.723Z,80.81
2018-10-02T14:43:51.263Z,80.87
2018-10-02T14:46:19.926Z,80.75
2018-10-02T14:48:48.532Z,80.75
2018-10-02T14:51:17.175Z,80.89
2018-10-02T14:53:45.784Z,80.62
2018-10-02T14:56:14.426Z,80.97
2018-10-02T14:58:43.122Z,80.87
2018-10-02T15:01:11.765Z,81.05
2018-10-02T15:03:40.271Z,80.85
2018-10-02T15:06:08.847Z,81.02
2018-10-02T15:08:37.407Z,81.08
2018-10-02T15:11:06.167Z,80.88
2018-10-02T15:13:34.742Z,80.81
2018-10-02T15:16:03.615Z,80.96
2018-10-02T15:18:32.419Z,80.53
2018-10-02T15:21:01.757Z,80.32
2018-10-02T15:23:30.340Z,80.37
2018-10-02T15:25:59.124Z,80.64
2018-10-02T15:28:27.623Z,80.79
2018-10-02T15:30:56.262Z,80.78
2018-10-02T15:33:25.020Z,80.93
2018-10-02T15:35:53.642Z,81.02
2018-10-02T15:38:22.366Z,81.31
2018-10-02T15:40:50.934Z,81.53
2018-10-02T15:43:19.644Z,81.37
2018-10-02T15:45:48.207Z,81.83
2018-10-02T15:48:16.780Z,81.79
2018-10-02T15:50:45.553Z,81.99
2018-10-02T15:53:14.138Z,82.07
2018-10-02T15:55:42.772Z,81.87
2018-10-02T15:58:11.414Z,81.72
2018-10-02T16:00:40.035Z,82.23
2018-10-02T16:03:08.593Z,82.14
2018-10-02T16:05:37.325Z,82.28
2018-10-02T16:08:05.931Z,82.06
2018-10-02T16:10:34.668Z,82.10
2018-10-02T16:13:03.777Z,82.28
2018-10-02T16:15:32.306Z,82.46
2018-10-02T16:18:01.984Z,82.44
2018-10-02T16:20:30.585Z,82.20
2018-10-02T16:22:59.261Z,82.27
2018-10-02T16:25:28.241Z,83.10
2018-10-02T16:27:56.826Z,83.25
2018-10-02T16:30:25.505Z,83.46
2018-10-02T16:32:54.103Z,83.50
2018-10-02T16:35:22.861Z,83.82
2018-10-02T16:37:51.673Z,83.52
2018-10-02T16:40:20.313Z,83.19
2018-10-02T16:42:49.141Z,83.28
2018-10-02T16:45:17.826Z,83.57
2018-10-02T16:47:46.570Z,83.39
2018-10-02T16:50:15.123Z,83.13
2018-10-02T16:52:43.785Z,83.58
2018-10-02T16:55:12.395Z,83.94
2018-10-02T16:57:40.956Z,83.80
2018-10-02T17:00:09.756Z,83.97
2018-10-02T17:02:38.313Z,84.00
2018-10-02T17:05:06.959Z,84.39
2018-10-02T17:07:35.621Z,84.47
2018-10-02T17:10:04.214Z,84.29
2018-10-02T17:12:32.871Z,85.06
2018-10-02T17:15:01.855Z,85.39
2018-10-02T17:17:30.561Z,85.50
2018-10-02T17:19:59.320Z,85.69
2018-10-02T17:22:27.949Z,85.45
2018-10-02T17:24:56.604Z,85.33
2018-10-02T17:27:25.373Z,85.67
2018-10-02T17:29:55.730Z,85.69
2018-10-02T17:32:24.352Z,85.93
2018-10-02T17:34:53.062Z,85.94
2018-10-02T17:37:21.763Z,86.18
2018-10-02T17:39:50.392Z,86.38
2018-10-02T17:42:18.937Z,86.27
2018-10-02T17:44:47.564Z,85.99
2018-10-02T17:47:16.123Z,86.13
2018-10-02T17:49:44.987Z,85.93
2018-10-02T17:52:13.660Z,85.61
2018-10-02T17:54:42.281Z,85.93
2018-10-02T17:57:11.128Z,85.78
2018-10-02T17:59:39.736Z,85.93
2018-10-02T18:02:08.350Z,85.96
2018-10-02T18:04:36.904Z,86.25
2018-10-02T18:07:05.475Z,86.21
2018-10-02T18:09:34.078Z,85.58
2018-10-02T18:12:02.896Z,85.59
2018-10-02T18:14:31.471Z,85.45
2018-10-02T18:17:00.142Z,85.43
2018-10-02T18:19:28.727Z,85.18
2018-10-02T18:21:57.313Z,84.94
2018-10-02T18:24:25.904Z,85.03
2018-10-02T18:26:54.569Z,84.94
2018-10-02T18:29:23.193Z,84.94
2018-10-02T18:31:51.853Z,84.87
2018-10-02T18:34:20.365Z,84.95
2018-10-02T18:36:49.015Z,84.59
2018-10-02T18:39:17.664Z,84.52
2018-10-02T18:41:46.323Z,84.66
2018-10-02T18:44:15.062Z,84.47
2018-10-02T18:46:43.656Z,84.39
2018-10-02T18:49:12.440Z,84.41
2018-10-02T18:51:40.986Z,84.30
2018-10-02T18:54:09.558Z,84.29
2018-10-02T18:56:38.216Z,84.48
2018-10-02T18:59:06.950Z,84.56
2018-10-02T19:01:35.544Z,84.07
2018-10-02T19:04:04.125Z,84.25
2018-10-02T19:06:32.813Z,84.16
2018-10-02T19:09:06.784Z,84.09
2018-10-02T19:11:40.706Z,84.01
2018-10-02T19:14:09.278Z,83.91
2018-10-02T19:16:37.934Z,83.37
2018-10-02T19:19:06.592Z,82.77
2018-10-02T19:21:35.229Z,82.76
2018-10-02T19:24:03.950Z,82.03
2018-10-02T19:26:32.614Z,81.61
2018-10-02T19:29:01.640Z,81.15
2018-10-02T19:31:35.522Z,80.90
2018-10-02T19:34:04.262Z,80.87
2018-10-02T19:36:32.822Z,80.83
2018-10-02T19:39:07.541Z,80.59
2018-10-02T19:41:36.145Z,80.80
2018-10-02T19:44:04.713Z,80.75
2018-10-02T19:46:38.683Z,80.64
2018-10-02T19:49:07.387Z,80.44
2018-10-02T19:51:41.212Z,80.45
2018-10-02T19:54:10.107Z,80.05
2018-10-02T19:56:38.663Z,79.66
2018-10-02T19:59:07.260Z,79.23
2018-10-02T20:01:36.006Z,79.19
2018-10-02T20:04:04.702Z,78.26
2018-10-02T20:06:33.250Z,77.99
2018-10-02T20:09:02.329Z,77.78
2018-10-02T20:11:30.988Z,77.92
2018-10-02T20:13:59.611Z,77.84
2018-10-02T20:16:28.189Z,77.74
2018-10-02T20:18:57.004Z,77.46
2018-10-02T20:21:26.001Z,77.60
2018-10-02T20:23:54.628Z,77.71
2018-10-02T20:26:23.171Z,77.63
2018-10-02T20:28:51.784Z,77.52
2018-10-02T20:31:20.551Z,77.21
2018-10-02T20:33:49.301Z,77.61
2018-10-02T20:36:17.871Z,77.40
2018-10-02T20:38:46.441Z,76.99
2018-10-02T20:41:15.132Z,76.48
2018-10-02T20:43:43.778Z,76.52
2018-10-02T20:46:12.329Z,76.21
2018-10-02T20:48:40.985Z,76.01
2018-10-02T20:51:09.499Z,76.10
2018-10-02T20:53:38.133Z,76.35
2018-10-02T20:56:06.811Z,76.36
2018-10-02T20:58:35.715Z,75.81
2018-10-02T21:01:04.557Z,76.11
2018-10-02T21:03:33.051Z,75.93
2018-10-02T21:06:01.603Z,75.71
2018-10-02T21:08:30.262Z,75.93
2018-10-02T21:10:58.986Z,75.33
2018-10-02T21:13:27.892Z,74.85
2018-10-02T21:15:56.464Z,74.74
2018-10-02T21:18:26.215Z,74.72
2018-10-02T21:20:55.093Z,74.38
2018-10-02T21:23:24.283Z,74.00
2018-10-02T21:25:52.871Z,73.84
2018-10-02T21:28:21.469Z,73.47
2018-10-02T21:30:50.053Z,73.51
2018-10-02T21:33:18.812Z,73.17
2018-10-02T21:35:47.562Z,73.06
2018-10-02T21:38:16.195Z,73.14
2018-10-02T21:40:44.897Z,73.59
2018-10-02T21:43:13.658Z,73.62
2018-10-02T21:45:42.276Z,73.65
2018-10-02T21:48:10.810Z,73.94
2018-10-02T21:50:39.903Z,74.09
2018-10-02T21:53:08.522Z,74.14
2018-10-02T21:55:37.169Z,73.82
2018-10-02T21:58:05.964Z,73.18
2018-10-02T22:00:35.035Z,73.06
2018-10-02T22:03:04.048Z,72.44
2018-10-02T22:05:32.583Z,72.47
2018-10-02T22:08:02.240Z,72.02
2018-10-02T22:10:30.929Z,71.86
2018-10-02T22:12:59.606Z,71.36
2018-10-02T22:15:28.643Z,71.87
2018-10-02T22:17:57.243Z,71.81
2018-10-02T22:20:25.993Z,71.65
2018-10-02T22:22:54.552Z,71.72
2018-10-02T22:25:23.160Z,71.76
2018-10-02T22:27:51.743Z,71.71
2018-10-02T22:30:20.307Z,71.80
2018-10-02T22:32:48.856Z,72.19
2018-10-02T22:35:17.467Z,71.32
2018-10-02T22:37:46.130Z,71.67
2018-10-02T22:40:14.868Z,71.62
2018-10-02T22:42:43.488Z,71.68
2018-10-02T22:45:12.141Z,71.89
2018-10-02T22:47:40.691Z,71.74
2018-10-02T22:50:09.393Z,71.91
2018-10-02T22:52:37.974Z,72.05
2018-10-02T22:55:06.605Z,71.72
2018-10-02T22:57:35.212Z,71.47
2018-10-02T23:00:03.905Z,71.27
2018-10-02T23:02:32.603Z,71.31
2018-10-02T23:05:01.475Z,70.70
2018-10-02T23:07:30.323Z,71.01
2018-10-02T23:09:58.995Z,71.07
2018-10-02T23:12:27.570Z,70.71
2018-10-02T23:14:56.318Z,70.34
2018-10-02T23:17:24.957Z,70.28
2018-10-02T23:19:53.649Z,69.97
2018-10-02T23:22:22.326Z,70.05
2018-10-02T23:24:50.958Z,70.12
2018-10-02T23:27:19.640Z,70.06
2018-10-02T23:29:48.290Z,69.57
2018-10-02T23:32:17.090Z,69.91
2018-10-02T23:34:45.876Z,69.69
2018-10-02T23:37:14.646Z,69.94
2018-10-02T23:39:43.318Z,70.01
2018-10-02T23:42:12.053Z,69.80
2018-10-02T23:44:40.572Z,69.78
2018-10-02T23:47:09.277Z,70.02
2018-10-02T23:49:37.915Z,70.03
2018-10-02T23:52:06.533Z,69.52
2018-10-02T23:54:35.132Z,69.99
2018-10-02T23:57:03.893Z,69.85
2018-10-02T23:59:32.533Z,69.89
